sensor_id;sensor_type;location;lat;lon;timestamp;P1;durP1;ratioP1;P2;durP2;ratioP2
25213;SDS011;13160;51.834;4.706;2024-01-11T00:01:34;19.83;;;9.43;;
25213;SDS011;13160;51.834;4.706;2024-01-11T00:04:03;20.67;;;9.63;;
25213;SDS011;13160;51.834;4.706;2024-01-11T00:06:33;19.52;;;9.82;;
25213;SDS011;13160;51.834;4.706;2024-01-11T00:09:09;19.50;;;9.50;;
25213;SDS011;13160;51.834;4.706;2024-01-11T00:11:38;25.13;;;9.57;;
25213;SDS011;13160;51.834;4.706;2024-01-11T00:14:06;26.10;;;10.63;;
25213;SDS011;13160;51.834;4.706;2024-01-11T00:16:35;19.90;;;8.85;;
25213;SDS011;13160;51.834;4.706;2024-01-11T00:19:04;23.80;;;10.05;;
25213;SDS011;13160;51.834;4.706;2024-01-11T00:21:34;19.83;;;9.40;;
25213;SDS011;13160;51.834;4.706;2024-01-11T00:24:06;19.50;;;8.73;;
25213;SDS011;13160;51.834;4.706;2024-01-11T00:26:35;17.75;;;8.82;;
25213;SDS011;13160;51.834;4.706;2024-01-11T00:29:03;18.45;;;9.07;;
25213;SDS011;13160;51.834;4.706;2024-01-11T00:31:32;18.70;;;9.40;;
25213;SDS011;13160;51.834;4.706;2024-01-11T00:34:01;21.42;;;10.27;;
25213;SDS011;13160;51.834;4.706;2024-01-11T00:36:30;16.80;;;8.90;;
25213;SDS011;13160;51.834;4.706;2024-01-11T00:39:00;18.40;;;8.98;;
25213;SDS011;13160;51.834;4.706;2024-01-11T00:41:29;21.67;;;9.63;;
25213;SDS011;13160;51.834;4.706;2024-01-11T00:43:57;16.25;;;8.88;;
25213;SDS011;13160;51.834;4.706;2024-01-11T00:46:26;19.58;;;9.68;;
25213;SDS011;13160;51.834;4.706;2024-01-11T00:48:55;21.25;;;9.82;;
25213;SDS011;13160;51.834;4.706;2024-01-11T00:51:23;23.05;;;9.88;;
25213;SDS011;13160;51.834;4.706;2024-01-11T00:53:52;20.83;;;9.55;;
25213;SDS011;13160;51.834;4.706;2024-01-11T00:56:22;18.63;;;8.65;;
25213;SDS011;13160;51.834;4.706;2024-01-11T00:58:50;24.35;;;9.88;;
25213;SDS011;13160;51.834;4.706;2024-01-11T01:01:19;22.00;;;9.52;;
25213;SDS011;13160;51.834;4.706;2024-01-11T01:03:48;21.98;;;9.63;;
25213;SDS011;13160;51.834;4.706;2024-01-11T01:06:17;25.55;;;9.95;;
25213;SDS011;13160;51.834;4.706;2024-01-11T01:08:45;24.17;;;9.95;;
25213;SDS011;13160;51.834;4.706;2024-01-11T01:11:14;21.00;;;9.77;;
25213;SDS011;13160;51.834;4.706;2024-01-11T01:13:44;23.83;;;10.23;;
25213;SDS011;13160;51.834;4.706;2024-01-11T01:16:12;20.65;;;9.98;;
25213;SDS011;13160;51.834;4.706;2024-01-11T01:18:43;16.77;;;8.68;;
25213;SDS011;13160;51.834;4.706;2024-01-11T01:21:12;18.92;;;9.65;;
25213;SDS011;13160;51.834;4.706;2024-01-11T01:23:40;18.30;;;9.30;;
25213;SDS011;13160;51.834;4.706;2024-01-11T01:26:09;19.70;;;9.18;;
25213;SDS011;13160;51.834;4.706;2024-01-11T01:28:37;21.27;;;10.20;;
25213;SDS011;13160;51.834;4.706;2024-01-11T01:31:07;19.27;;;9.25;;
25213;SDS011;13160;51.834;4.706;2024-01-11T01:33:37;17.23;;;9.35;;
25213;SDS011;13160;51.834;4.706;2024-01-11T01:36:08;18.23;;;9.10;;
25213;SDS011;13160;51.834;4.706;2024-01-11T01:38:37;21.63;;;9.77;;
25213;SDS011;13160;51.834;4.706;2024-01-11T01:41:06;16.77;;;9.00;;
25213;SDS011;13160;51.834;4.706;2024-01-11T01:43:34;25.17;;;10.52;;
25213;SDS011;13160;51.834;4.706;2024-01-11T01:46:03;21.73;;;9.05;;
25213;SDS011;13160;51.834;4.706;2024-01-11T01:48:35;19.52;;;9.45;;
25213;SDS011;13160;51.834;4.706;2024-01-11T01:51:05;19.20;;;9.77;;
25213;SDS011;13160;51.834;4.706;2024-01-11T01:53:34;19.40;;;9.90;;
25213;SDS011;13160;51.834;4.706;2024-01-11T01:56:04;21.60;;;10.07;;
25213;SDS011;13160;51.834;4.706;2024-01-11T01:58:34;23.98;;;9.48;;
25213;SDS011;13160;51.834;4.706;2024-01-11T02:01:04;23.08;;;10.10;;
25213;SDS011;13160;51.834;4.706;2024-01-11T02:03:38;28.13;;;11.57;;
25213;SDS011;13160;51.834;4.706;2024-01-11T02:06:08;18.42;;;9.57;;
25213;SDS011;13160;51.834;4.706;2024-01-11T02:08:37;24.33;;;11.85;;
25213;SDS011;13160;51.834;4.706;2024-01-11T02:11:08;22.45;;;9.70;;
25213;SDS011;13160;51.834;4.706;2024-01-11T02:13:39;19.73;;;10.20;;
25213;SDS011;13160;51.834;4.706;2024-01-11T02:16:07;25.10;;;9.77;;
25213;SDS011;13160;51.834;4.706;2024-01-11T02:18:37;20.35;;;9.93;;
25213;SDS011;13160;51.834;4.706;2024-01-11T02:21:08;19.25;;;9.68;;
25213;SDS011;13160;51.834;4.706;2024-01-11T02:23:40;25.58;;;10.90;;
25213;SDS011;13160;51.834;4.706;2024-01-11T02:26:16;26.23;;;10.25;;
25213;SDS011;13160;51.834;4.706;2024-01-11T02:28:45;23.73;;;9.85;;
25213;SDS011;13160;51.834;4.706;2024-01-11T02:31:13;20.35;;;10.80;;
25213;SDS011;13160;51.834;4.706;2024-01-11T02:33:42;18.17;;;10.05;;
25213;SDS011;13160;51.834;4.706;2024-01-11T02:36:11;19.95;;;10.10;;
25213;SDS011;13160;51.834;4.706;2024-01-11T02:38:41;20.70;;;8.85;;
25213;SDS011;13160;51.834;4.706;2024-01-11T02:41:10;21.33;;;9.93;;
25213;SDS011;13160;51.834;4.706;2024-01-11T02:43:43;22.77;;;10.40;;
25213;SDS011;13160;51.834;4.706;2024-01-11T02:46:15;23.17;;;9.90;;
25213;SDS011;13160;51.834;4.706;2024-01-11T02:48:44;25.27;;;9.98;;
25213;SDS011;13160;51.834;4.706;2024-01-11T02:51:13;22.20;;;10.13;;
25213;SDS011;13160;51.834;4.706;2024-01-11T02:53:42;21.33;;;9.50;;
25213;SDS011;13160;51.834;4.706;2024-01-11T02:56:10;19.45;;;9.50;;
25213;SDS011;13160;51.834;4.706;2024-01-11T02:58:39;21.23;;;10.57;;
25213;SDS011;13160;51.834;4.706;2024-01-11T03:01:09;20.08;;;9.52;;
25213;SDS011;13160;51.834;4.706;2024-01-11T03:03:37;23.10;;;10.02;;
25213;SDS011;13160;51.834;4.706;2024-01-11T03:06:06;17.38;;;9.18;;
25213;SDS011;13160;51.834;4.706;2024-01-11T03:08:34;20.05;;;10.05;;
25213;SDS011;13160;51.834;4.706;2024-01-11T03:11:03;22.40;;;10.27;;
25213;SDS011;13160;51.834;4.706;2024-01-11T03:13:32;20.15;;;9.75;;
25213;SDS011;13160;51.834;4.706;2024-01-11T03:16:00;21.88;;;9.55;;
25213;SDS011;13160;51.834;4.706;2024-01-11T03:18:31;25.15;;;10.80;;
25213;SDS011;13160;51.834;4.706;2024-01-11T03:20:59;21.45;;;9.52;;
25213;SDS011;13160;51.834;4.706;2024-01-11T03:23:27;21.45;;;9.52;;
25213;SDS011;13160;51.834;4.706;2024-01-11T03:25:56;24.45;;;10.15;;
25213;SDS011;13160;51.834;4.706;2024-01-11T03:28:25;19.85;;;9.50;;
25213;SDS011;13160;51.834;4.706;2024-01-11T03:30:54;17.80;;;9.30;;
25213;SDS011;13160;51.834;4.706;2024-01-11T03:33:22;21.55;;;9.05;;
25213;SDS011;13160;51.834;4.706;2024-01-11T03:35:53;19.40;;;9.60;;
25213;SDS011;13160;51.834;4.706;2024-01-11T03:38:21;17.95;;;8.95;;
25213;SDS011;13160;51.834;4.706;2024-01-11T03:40:50;18.15;;;8.40;;
25213;SDS011;13160;51.834;4.706;2024-01-11T03:43:19;22.50;;;10.57;;
25213;SDS011;13160;51.834;4.706;2024-01-11T03:45:47;19.27;;;9.32;;
25213;SDS011;13160;51.834;4.706;2024-01-11T03:48:16;18.00;;;8.52;;
25213;SDS011;13160;51.834;4.706;2024-01-11T03:50:44;19.50;;;9.02;;
25213;SDS011;13160;51.834;4.706;2024-01-11T03:53:14;24.90;;;10.52;;
25213;SDS011;13160;51.834;4.706;2024-01-11T03:55:42;19.67;;;9.18;;
25213;SDS011;13160;51.834;4.706;2024-01-11T03:58:11;20.92;;;9.60;;
25213;SDS011;13160;51.834;4.706;2024-01-11T04:00:40;21.45;;;10.40;;
25213;SDS011;13160;51.834;4.706;2024-01-11T04:03:09;22.25;;;10.20;;
25213;SDS011;13160;51.834;4.706;2024-01-11T04:05:37;24.65;;;10.45;;
25213;SDS011;13160;51.834;4.706;2024-01-11T04:08:06;22.27;;;9.48;;
25213;SDS011;13160;51.834;4.706;2024-01-11T04:10:37;21.60;;;9.43;;
25213;SDS011;13160;51.834;4.706;2024-01-11T04:13:06;23.80;;;9.48;;
25213;SDS011;13160;51.834;4.706;2024-01-11T04:15:35;18.98;;;9.35;;
25213;SDS011;13160;51.834;4.706;2024-01-11T04:18:04;20.52;;;9.25;;
25213;SDS011;13160;51.834;4.706;2024-01-11T04:20:32;18.08;;;9.23;;
25213;SDS011;13160;51.834;4.706;2024-01-11T04:23:02;19.20;;;8.75;;
25213;SDS011;13160;51.834;4.706;2024-01-11T04:25:31;21.90;;;9.73;;
25213;SDS011;13160;51.834;4.706;2024-01-11T04:28:00;19.40;;;8.65;;
25213;SDS011;13160;51.834;4.706;2024-01-11T04:30:29;21.58;;;9.20;;
25213;SDS011;13160;51.834;4.706;2024-01-11T04:32:58;18.65;;;8.02;;
25213;SDS011;13160;51.834;4.706;2024-01-11T04:35:27;25.33;;;10.57;;
25213;SDS011;13160;51.834;4.706;2024-01-11T04:37:56;28.42;;;10.73;;
25213;SDS011;13160;51.834;4.706;2024-01-11T04:40:24;21.90;;;10.15;;
25213;SDS011;13160;51.834;4.706;2024-01-11T04:42:53;26.38;;;10.13;;
25213;SDS011;13160;51.834;4.706;2024-01-11T04:45:23;21.77;;;9.95;;
25213;SDS011;13160;51.834;4.706;2024-01-11T04:47:51;24.27;;;10.02;;
25213;SDS011;13160;51.834;4.706;2024-01-11T04:50:20;27.33;;;12.40;;
25213;SDS011;13160;51.834;4.706;2024-01-11T04:52:49;23.50;;;11.70;;
25213;SDS011;13160;51.834;4.706;2024-01-11T04:55:17;27.70;;;12.07;;
25213;SDS011;13160;51.834;4.706;2024-01-11T04:57:45;24.95;;;10.63;;
25213;SDS011;13160;51.834;4.706;2024-01-11T05:00:14;25.05;;;11.98;;
25213;SDS011;13160;51.834;4.706;2024-01-11T05:02:45;23.63;;;10.85;;
25213;SDS011;13160;51.834;4.706;2024-01-11T05:05:14;27.35;;;11.15;;
25213;SDS011;13160;51.834;4.706;2024-01-11T05:07:42;24.35;;;10.38;;
25213;SDS011;13160;51.834;4.706;2024-01-11T05:10:11;27.92;;;10.77;;
25213;SDS011;13160;51.834;4.706;2024-01-11T05:12:39;24.60;;;10.65;;
25213;SDS011;13160;51.834;4.706;2024-01-11T05:15:08;19.38;;;8.95;;
25213;SDS011;13160;51.834;4.706;2024-01-11T05:17:37;25.02;;;10.10;;
25213;SDS011;13160;51.834;4.706;2024-01-11T05:20:08;24.23;;;10.35;;
25213;SDS011;13160;51.834;4.706;2024-01-11T05:22:38;26.33;;;11.70;;
25213;SDS011;13160;51.834;4.706;2024-01-11T05:25:06;19.25;;;8.95;;
25213;SDS011;13160;51.834;4.706;2024-01-11T05:27:35;22.63;;;10.25;;
25213;SDS011;13160;51.834;4.706;2024-01-11T05:30:04;21.63;;;11.43;;
25213;SDS011;13160;51.834;4.706;2024-01-11T05:32:35;22.40;;;11.50;;
25213;SDS011;13160;51.834;4.706;2024-01-11T05:35:04;25.65;;;11.48;;
25213;SDS011;13160;51.834;4.706;2024-01-11T05:37:34;29.98;;;12.07;;
25213;SDS011;13160;51.834;4.706;2024-01-11T05:40:03;25.63;;;12.13;;
25213;SDS011;13160;51.834;4.706;2024-01-11T05:42:32;27.30;;;11.57;;
25213;SDS011;13160;51.834;4.706;2024-01-11T05:45:01;30.45;;;12.13;;
25213;SDS011;13160;51.834;4.706;2024-01-11T05:47:29;23.27;;;11.68;;
25213;SDS011;13160;51.834;4.706;2024-01-11T05:49:58;27.05;;;13.45;;
25213;SDS011;13160;51.834;4.706;2024-01-11T05:52:26;34.58;;;12.00;;
25213;SDS011;13160;51.834;4.706;2024-01-11T05:54:56;26.60;;;12.27;;
25213;SDS011;13160;51.834;4.706;2024-01-11T05:57:25;20.25;;;9.77;;
25213;SDS011;13160;51.834;4.706;2024-01-11T05:59:53;25.63;;;11.23;;
25213;SDS011;13160;51.834;4.706;2024-01-11T06:02:22;29.58;;;11.45;;
25213;SDS011;13160;51.834;4.706;2024-01-11T06:04:50;25.25;;;12.05;;
25213;SDS011;13160;51.834;4.706;2024-01-11T06:07:19;23.92;;;12.27;;
25213;SDS011;13160;51.834;4.706;2024-01-11T06:09:47;33.60;;;10.90;;
25213;SDS011;13160;51.834;4.706;2024-01-11T06:12:17;33.83;;;12.10;;
25213;SDS011;13160;51.834;4.706;2024-01-11T06:14:45;24.95;;;11.43;;
25213;SDS011;13160;51.834;4.706;2024-01-11T06:17:14;25.73;;;11.27;;
25213;SDS011;13160;51.834;4.706;2024-01-11T06:19:43;26.75;;;11.52;;
25213;SDS011;13160;51.834;4.706;2024-01-11T06:22:11;27.50;;;12.10;;
25213;SDS011;13160;51.834;4.706;2024-01-11T06:24:40;24.98;;;10.82;;
25213;SDS011;13160;51.834;4.706;2024-01-11T06:27:08;25.70;;;11.13;;
25213;SDS011;13160;51.834;4.706;2024-01-11T06:29:38;26.20;;;12.57;;
25213;SDS011;13160;51.834;4.706;2024-01-11T06:32:06;26.60;;;11.57;;
25213;SDS011;13160;51.834;4.706;2024-01-11T06:34:35;31.48;;;12.65;;
25213;SDS011;13160;51.834;4.706;2024-01-11T06:37:04;21.45;;;11.13;;
25213;SDS011;13160;51.834;4.706;2024-01-11T06:39:32;25.05;;;11.85;;
25213;SDS011;13160;51.834;4.706;2024-01-11T06:42:01;29.50;;;12.77;;
25213;SDS011;13160;51.834;4.706;2024-01-11T06:44:29;25.17;;;10.90;;
25213;SDS011;13160;51.834;4.706;2024-01-11T06:46:59;22.65;;;11.15;;
25213;SDS011;13160;51.834;4.706;2024-01-11T06:49:30;26.08;;;11.15;;
25213;SDS011;13160;51.834;4.706;2024-01-11T06:51:59;32.67;;;12.55;;
25213;SDS011;13160;51.834;4.706;2024-01-11T06:54:29;30.67;;;14.05;;
25213;SDS011;13160;51.834;4.706;2024-01-11T06:56:58;25.80;;;12.65;;
25213;SDS011;13160;51.834;4.706;2024-01-11T06:59:27;31.17;;;13.95;;
25213;SDS011;13160;51.834;4.706;2024-01-11T07:01:56;25.27;;;12.57;;
25213;SDS011;13160;51.834;4.706;2024-01-11T07:04:26;33.90;;;13.60;;
25213;SDS011;13160;51.834;4.706;2024-01-11T07:06:59;31.83;;;13.82;;
25213;SDS011;13160;51.834;4.706;2024-01-11T07:09:31;33.33;;;14.52;;
25213;SDS011;13160;51.834;4.706;2024-01-11T07:11:59;28.42;;;12.73;;
25213;SDS011;13160;51.834;4.706;2024-01-11T07:14:28;28.33;;;14.20;;
25213;SDS011;13160;51.834;4.706;2024-01-11T07:16:57;34.55;;;14.40;;
25213;SDS011;13160;51.834;4.706;2024-01-11T07:19:28;31.02;;;12.52;;
25213;SDS011;13160;51.834;4.706;2024-01-11T07:21:56;29.50;;;13.23;;
25213;SDS011;13160;51.834;4.706;2024-01-11T07:24:25;28.40;;;12.75;;
25213;SDS011;13160;51.834;4.706;2024-01-11T07:26:56;31.08;;;15.18;;
25213;SDS011;13160;51.834;4.706;2024-01-11T07:29:24;32.05;;;14.68;;
25213;SDS011;13160;51.834;4.706;2024-01-11T07:31:53;35.05;;;14.30;;
25213;SDS011;13160;51.834;4.706;2024-01-11T07:34:22;38.55;;;15.52;;
25213;SDS011;13160;51.834;4.706;2024-01-11T07:36:53;34.67;;;14.82;;
25213;SDS011;13160;51.834;4.706;2024-01-11T07:39:21;32.20;;;14.60;;
25213;SDS011;13160;51.834;4.706;2024-01-11T07:41:50;35.22;;;15.10;;
25213;SDS011;13160;51.834;4.706;2024-01-11T07:44:19;37.20;;;16.20;;
25213;SDS011;13160;51.834;4.706;2024-01-11T07:46:48;43.55;;;17.90;;
25213;SDS011;13160;51.834;4.706;2024-01-11T07:49:21;34.72;;;14.90;;
25213;SDS011;13160;51.834;4.706;2024-01-11T07:51:50;36.65;;;15.70;;
25213;SDS011;13160;51.834;4.706;2024-01-11T07:54:19;33.38;;;15.48;;
25213;SDS011;13160;51.834;4.706;2024-01-11T07:56:48;36.85;;;16.90;;
25213;SDS011;13160;51.834;4.706;2024-01-11T07:59:17;42.40;;;16.75;;
25213;SDS011;13160;51.834;4.706;2024-01-11T08:01:45;43.72;;;16.83;;
25213;SDS011;13160;51.834;4.706;2024-01-11T08:04:15;36.85;;;15.43;;
25213;SDS011;13160;51.834;4.706;2024-01-11T08:06:43;37.92;;;16.50;;
25213;SDS011;13160;51.834;4.706;2024-01-11T08:09:12;36.90;;;16.42;;
25213;SDS011;13160;51.834;4.706;2024-01-11T08:11:42;36.95;;;16.40;;
25213;SDS011;13160;51.834;4.706;2024-01-11T08:14:16;39.03;;;15.98;;
25213;SDS011;13160;51.834;4.706;2024-01-11T08:16:45;38.08;;;17.90;;
25213;SDS011;13160;51.834;4.706;2024-01-11T08:19:13;37.72;;;16.92;;
25213;SDS011;13160;51.834;4.706;2024-01-11T08:21:43;33.53;;;16.55;;
25213;SDS011;13160;51.834;4.706;2024-01-11T08:24:12;32.83;;;16.00;;
25213;SDS011;13160;51.834;4.706;2024-01-11T08:26:41;34.60;;;15.43;;
25213;SDS011;13160;51.834;4.706;2024-01-11T08:29:10;34.58;;;16.77;;
25213;SDS011;13160;51.834;4.706;2024-01-11T08:31:40;43.70;;;18.40;;
25213;SDS011;13160;51.834;4.706;2024-01-11T08:34:10;35.42;;;18.67;;
25213;SDS011;13160;51.834;4.706;2024-01-11T08:36:39;47.17;;;21.35;;
25213;SDS011;13160;51.834;4.706;2024-01-11T08:39:07;43.40;;;18.92;;
25213;SDS011;13160;51.834;4.706;2024-01-11T08:41:37;43.22;;;19.15;;
25213;SDS011;13160;51.834;4.706;2024-01-11T08:44:07;38.03;;;17.92;;
25213;SDS011;13160;51.834;4.706;2024-01-11T08:46:36;44.90;;;19.15;;
25213;SDS011;13160;51.834;4.706;2024-01-11T08:49:05;45.53;;;19.48;;
25213;SDS011;13160;51.834;4.706;2024-01-11T08:51:35;34.25;;;16.92;;
25213;SDS011;13160;51.834;4.706;2024-01-11T08:54:03;40.25;;;17.52;;
25213;SDS011;13160;51.834;4.706;2024-01-11T08:56:35;40.47;;;18.20;;
25213;SDS011;13160;51.834;4.706;2024-01-11T08:59:09;40.03;;;17.52;;
25213;SDS011;13160;51.834;4.706;2024-01-11T09:01:38;44.05;;;18.85;;
25213;SDS011;13160;51.834;4.706;2024-01-11T09:04:15;39.22;;;18.55;;
25213;SDS011;13160;51.834;4.706;2024-01-11T09:06:44;51.17;;;22.23;;
25213;SDS011;13160;51.834;4.706;2024-01-11T09:09:13;44.63;;;19.95;;
25213;SDS011;13160;51.834;4.706;2024-01-11T09:11:43;40.90;;;20.27;;
25213;SDS011;13160;51.834;4.706;2024-01-11T09:14:13;49.05;;;22.27;;
25213;SDS011;13160;51.834;4.706;2024-01-11T09:16:42;47.97;;;22.35;;
25213;SDS011;13160;51.834;4.706;2024-01-11T09:19:12;48.85;;;21.88;;
25213;SDS011;13160;51.834;4.706;2024-01-11T09:21:40;54.58;;;23.98;;
25213;SDS011;13160;51.834;4.706;2024-01-11T09:24:09;46.47;;;21.90;;
25213;SDS011;13160;51.834;4.706;2024-01-11T09:26:38;51.58;;;23.80;;
25213;SDS011;13160;51.834;4.706;2024-01-11T09:29:07;49.90;;;23.58;;
25213;SDS011;13160;51.834;4.706;2024-01-11T09:31:37;49.28;;;24.75;;
25213;SDS011;13160;51.834;4.706;2024-01-11T09:34:05;61.42;;;27.02;;
25213;SDS011;13160;51.834;4.706;2024-01-11T09:36:34;50.75;;;22.80;;
25213;SDS011;13160;51.834;4.706;2024-01-11T09:39:05;52.70;;;24.42;;
25213;SDS011;13160;51.834;4.706;2024-01-11T09:41:35;54.40;;;24.33;;
25213;SDS011;13160;51.834;4.706;2024-01-11T09:44:05;54.15;;;23.33;;
25213;SDS011;13160;51.834;4.706;2024-01-11T09:46:36;56.90;;;25.38;;
25213;SDS011;13160;51.834;4.706;2024-01-11T09:49:05;49.83;;;24.55;;
25213;SDS011;13160;51.834;4.706;2024-01-11T09:51:36;52.10;;;24.65;;
25213;SDS011;13160;51.834;4.706;2024-01-11T09:54:07;58.38;;;26.23;;
25213;SDS011;13160;51.834;4.706;2024-01-11T09:56:37;55.53;;;25.23;;
25213;SDS011;13160;51.834;4.706;2024-01-11T09:59:07;51.85;;;23.52;;
25213;SDS011;13160;51.834;4.706;2024-01-11T10:01:41;48.53;;;23.88;;
25213;SDS011;13160;51.834;4.706;2024-01-11T10:04:09;47.70;;;23.35;;
25213;SDS011;13160;51.834;4.706;2024-01-11T10:06:40;49.30;;;22.25;;
25213;SDS011;13160;51.834;4.706;2024-01-11T10:09:09;53.42;;;23.17;;
25213;SDS011;13160;51.834;4.706;2024-01-11T10:11:39;50.78;;;22.30;;
25213;SDS011;13160;51.834;4.706;2024-01-11T10:14:08;43.30;;;20.98;;
25213;SDS011;13160;51.834;4.706;2024-01-11T10:16:42;42.58;;;21.70;;
25213;SDS011;13160;51.834;4.706;2024-01-11T10:19:12;44.90;;;21.20;;
25213;SDS011;13160;51.834;4.706;2024-01-11T10:21:43;50.47;;;22.02;;
25213;SDS011;13160;51.834;4.706;2024-01-11T10:24:18;44.03;;;21.70;;
25213;SDS011;13160;51.834;4.706;2024-01-11T10:26:49;45.80;;;21.75;;
25213;SDS011;13160;51.834;4.706;2024-01-11T10:29:19;45.47;;;21.83;;
25213;SDS011;13160;51.834;4.706;2024-01-11T10:31:49;45.78;;;21.75;;
25213;SDS011;13160;51.834;4.706;2024-01-11T10:34:19;48.45;;;21.73;;
25213;SDS011;13160;51.834;4.706;2024-01-11T10:36:48;41.65;;;21.05;;
25213;SDS011;13160;51.834;4.706;2024-01-11T10:39:18;43.40;;;21.35;;
25213;SDS011;13160;51.834;4.706;2024-01-11T10:41:59;39.53;;;20.95;;
25213;SDS011;13160;51.834;4.706;2024-01-11T10:44:34;41.67;;;20.98;;
25213;SDS011;13160;51.834;4.706;2024-01-11T10:47:05;43.97;;;21.25;;
25213;SDS011;13160;51.834;4.706;2024-01-11T10:49:37;42.30;;;21.02;;
25213;SDS011;13160;51.834;4.706;2024-01-11T10:52:09;35.75;;;18.50;;
25213;SDS011;13160;51.834;4.706;2024-01-11T10:54:40;34.70;;;16.42;;
25213;SDS011;13160;51.834;4.706;2024-01-11T10:57:10;30.92;;;16.23;;
25213;SDS011;13160;51.834;4.706;2024-01-11T10:59:40;34.15;;;16.08;;
25213;SDS011;13160;51.834;4.706;2024-01-11T11:02:12;32.30;;;15.65;;
25213;SDS011;13160;51.834;4.706;2024-01-11T11:04:42;33.45;;;16.98;;
25213;SDS011;13160;51.834;4.706;2024-01-11T11:07:11;36.40;;;17.73;;
25213;SDS011;13160;51.834;4.706;2024-01-11T11:09:41;35.65;;;16.90;;
25213;SDS011;13160;51.834;4.706;2024-01-11T11:12:12;40.38;;;17.42;;
25213;SDS011;13160;51.834;4.706;2024-01-11T11:14:41;34.47;;;17.30;;
25213;SDS011;13160;51.834;4.706;2024-01-11T11:17:13;34.85;;;17.63;;
25213;SDS011;13160;51.834;4.706;2024-01-11T11:19:43;35.10;;;17.65;;
25213;SDS011;13160;51.834;4.706;2024-01-11T11:22:12;38.80;;;17.98;;
25213;SDS011;13160;51.834;4.706;2024-01-11T11:24:42;35.17;;;18.02;;
25213;SDS011;13160;51.834;4.706;2024-01-11T11:27:12;37.58;;;19.27;;
25213;SDS011;13160;51.834;4.706;2024-01-11T11:29:42;39.35;;;19.05;;
25213;SDS011;13160;51.834;4.706;2024-01-11T11:32:17;41.35;;;20.27;;
25213;SDS011;13160;51.834;4.706;2024-01-11T11:35:02;42.83;;;20.15;;
25213;SDS011;13160;51.834;4.706;2024-01-11T11:37:33;42.13;;;20.33;;
25213;SDS011;13160;51.834;4.706;2024-01-11T11:40:06;36.20;;;18.30;;
25213;SDS011;13160;51.834;4.706;2024-01-11T11:42:37;38.03;;;18.83;;
25213;SDS011;13160;51.834;4.706;2024-01-11T11:45:07;41.45;;;20.17;;
25213;SDS011;13160;51.834;4.706;2024-01-11T11:47:39;35.88;;;19.67;;
25213;SDS011;13160;51.834;4.706;2024-01-11T11:50:10;36.80;;;18.95;;
25213;SDS011;13160;51.834;4.706;2024-01-11T11:52:40;40.90;;;19.85;;
25213;SDS011;13160;51.834;4.706;2024-01-11T11:55:09;44.78;;;21.77;;
25213;SDS011;13160;51.834;4.706;2024-01-11T11:57:37;43.97;;;19.75;;
25213;SDS011;13160;51.834;4.706;2024-01-11T12:00:07;40.28;;;20.20;;
25213;SDS011;13160;51.834;4.706;2024-01-11T12:02:37;36.47;;;19.67;;
25213;SDS011;13160;51.834;4.706;2024-01-11T12:05:08;37.47;;;18.88;;
25213;SDS011;13160;51.834;4.706;2024-01-11T12:07:37;42.00;;;19.35;;
25213;SDS011;13160;51.834;4.706;2024-01-11T12:10:05;44.67;;;22.05;;
25213;SDS011;13160;51.834;4.706;2024-01-11T12:12:34;39.78;;;21.52;;
25213;SDS011;13160;51.834;4.706;2024-01-11T12:15:07;37.90;;;20.67;;
25213;SDS011;13160;51.834;4.706;2024-01-11T12:17:37;41.20;;;21.88;;
25213;SDS011;13160;51.834;4.706;2024-01-11T12:20:09;37.53;;;19.75;;
25213;SDS011;13160;51.834;4.706;2024-01-11T12:22:39;37.38;;;19.92;;
25213;SDS011;13160;51.834;4.706;2024-01-11T12:25:08;37.80;;;19.80;;
25213;SDS011;13160;51.834;4.706;2024-01-11T12:27:38;39.05;;;20.52;;
25213;SDS011;13160;51.834;4.706;2024-01-11T12:30:07;36.50;;;19.65;;
25213;SDS011;13160;51.834;4.706;2024-01-11T12:32:42;37.58;;;20.30;;
25213;SDS011;13160;51.834;4.706;2024-01-11T12:35:13;35.40;;;20.10;;
25213;SDS011;13160;51.834;4.706;2024-01-11T12:37:51;35.97;;;19.77;;
25213;SDS011;13160;51.834;4.706;2024-01-11T12:40:20;37.30;;;20.40;;
25213;SDS011;13160;51.834;4.706;2024-01-11T12:42:49;35.22;;;20.05;;
25213;SDS011;13160;51.834;4.706;2024-01-11T12:45:20;36.80;;;19.63;;
25213;SDS011;13160;51.834;4.706;2024-01-11T12:47:50;40.50;;;20.65;;
25213;SDS011;13160;51.834;4.706;2024-01-11T12:50:19;38.60;;;20.67;;
25213;SDS011;13160;51.834;4.706;2024-01-11T12:53:06;36.55;;;20.48;;
25213;SDS011;13160;51.834;4.706;2024-01-11T12:55:38;42.05;;;24.42;;
25213;SDS011;13160;51.834;4.706;2024-01-11T12:58:22;43.75;;;28.80;;
25213;SDS011;13160;51.834;4.706;2024-01-11T13:00:53;33.53;;;18.65;;
25213;SDS011;13160;51.834;4.706;2024-01-11T13:03:23;30.33;;;17.33;;
25213;SDS011;13160;51.834;4.706;2024-01-11T13:05:54;31.80;;;18.27;;
25213;SDS011;13160;51.834;4.706;2024-01-11T13:08:22;30.60;;;17.13;;
25213;SDS011;13160;51.834;4.706;2024-01-11T13:10:51;35.03;;;20.08;;
25213;SDS011;13160;51.834;4.706;2024-01-11T13:13:20;32.03;;;17.65;;
25213;SDS011;13160;51.834;4.706;2024-01-11T13:15:50;88.28;;;66.40;;
25213;SDS011;13160;51.834;4.706;2024-01-11T13:18:19;35.25;;;20.83;;
25213;SDS011;13160;51.834;4.706;2024-01-11T13:20:49;27.58;;;17.13;;
25213;SDS011;13160;51.834;4.706;2024-01-11T13:23:19;34.88;;;18.10;;
25213;SDS011;13160;51.834;4.706;2024-01-11T13:25:48;45.00;;;31.15;;
25213;SDS011;13160;51.834;4.706;2024-01-11T13:28:18;43.20;;;28.60;;
25213;SDS011;13160;51.834;4.706;2024-01-11T13:30:47;31.60;;;19.73;;
25213;SDS011;13160;51.834;4.706;2024-01-11T13:33:16;30.90;;;17.38;;
25213;SDS011;13160;51.834;4.706;2024-01-11T13:35:46;28.88;;;16.88;;
25213;SDS011;13160;51.834;4.706;2024-01-11T13:38:16;36.17;;;18.27;;
25213;SDS011;13160;51.834;4.706;2024-01-11T13:40:48;32.35;;;17.20;;
25213;SDS011;13160;51.834;4.706;2024-01-11T13:43:17;29.63;;;16.83;;
25213;SDS011;13160;51.834;4.706;2024-01-11T13:45:45;29.88;;;16.52;;
25213;SDS011;13160;51.834;4.706;2024-01-11T13:48:14;25.83;;;15.20;;
25213;SDS011;13160;51.834;4.706;2024-01-11T13:50:43;30.63;;;17.13;;
25213;SDS011;13160;51.834;4.706;2024-01-11T13:53:11;27.48;;;16.02;;
25213;SDS011;13160;51.834;4.706;2024-01-11T13:55:41;25.80;;;15.73;;
25213;SDS011;13160;51.834;4.706;2024-01-11T13:58:10;31.75;;;17.48;;
25213;SDS011;13160;51.834;4.706;2024-01-11T14:00:40;30.55;;;17.20;;
25213;SDS011;13160;51.834;4.706;2024-01-11T14:03:09;29.38;;;16.27;;
25213;SDS011;13160;51.834;4.706;2024-01-11T14:05:37;27.23;;;16.38;;
25213;SDS011;13160;51.834;4.706;2024-01-11T14:08:06;30.83;;;17.98;;
25213;SDS011;13160;51.834;4.706;2024-01-11T14:10:34;28.15;;;15.63;;
25213;SDS011;13160;51.834;4.706;2024-01-11T14:13:04;28.48;;;16.13;;
25213;SDS011;13160;51.834;4.706;2024-01-11T14:15:33;29.38;;;14.93;;
25213;SDS011;13160;51.834;4.706;2024-01-11T14:18:02;30.05;;;15.35;;
25213;SDS011;13160;51.834;4.706;2024-01-11T14:20:31;25.92;;;15.25;;
25213;SDS011;13160;51.834;4.706;2024-01-11T14:23:01;28.65;;;14.50;;
25213;SDS011;13160;51.834;4.706;2024-01-11T14:25:29;27.27;;;15.02;;
25213;SDS011;13160;51.834;4.706;2024-01-11T14:27:58;27.05;;;15.43;;
25213;SDS011;13160;51.834;4.706;2024-01-11T14:30:28;28.85;;;15.68;;
25213;SDS011;13160;51.834;4.706;2024-01-11T14:32:57;26.98;;;16.00;;
25213;SDS011;13160;51.834;4.706;2024-01-11T14:35:26;26.77;;;15.77;;
25213;SDS011;13160;51.834;4.706;2024-01-11T14:37:55;30.42;;;16.17;;